createdAt,value
2023-11-25T00:01:08.381Z,4.40
2023-11-25T00:03:35.590Z,4.40
2023-11-25T00:06:02.789Z,4.40
2023-11-25T00:08:29.811Z,4.40
2023-11-25T00:10:57.314Z,4.40
2023-11-25T00:13:24.393Z,4.40
2023-11-25T00:15:51.250Z,4.30
2023-11-25T00:18:19.228Z,4.30
2023-11-25T00:20:48.128Z,4.30
2023-11-25T00:23:15.268Z,4.40
2023-11-25T00:25:42.325Z,4.40
2023-11-25T00:28:11.783Z,4.40
2023-11-25T00:30:39.829Z,4.40
2023-11-25T00:33:07.183Z,4.50
2023-11-25T00:35:34.265Z,4.50
2023-11-25T00:38:02.110Z,4.60
2023-11-25T00:40:30.193Z,4.70
2023-11-25T00:42:58.170Z,4.90
2023-11-25T00:45:27.799Z,5.00
2023-11-25T00:47:57.727Z,5.10
2023-11-25T00:50:26.262Z,5.10
2023-11-25T00:52:53.386Z,5.20
2023-11-25T00:55:20.309Z,5.20
2023-11-25T00:57:47.323Z,5.30
2023-11-25T01:00:17.909Z,5.30
2023-11-25T01:02:45.803Z,5.30
2023-11-25T01:05:13.002Z,5.40
2023-11-25T01:07:40.081Z,5.40
2023-11-25T01:10:07.819Z,5.40
2023-11-25T01:12:36.346Z,5.30
2023-11-25T01:15:05.278Z,5.20
2023-11-25T01:17:32.908Z,5.20
2023-11-25T01:20:00.298Z,5.20
2023-11-25T01:22:27.557Z,5.10
2023-11-25T01:24:54.588Z,5.10
2023-11-25T01:27:24.642Z,5.00
2023-11-25T01:29:52.799Z,4.80
2023-11-25T01:32:21.398Z,4.70
2023-11-25T01:34:48.803Z,4.50
2023-11-25T01:37:19.309Z,4.50
2023-11-25T01:39:47.904Z,4.40
2023-11-25T01:42:14.758Z,4.30
2023-11-25T01:44:41.707Z,4.20
2023-11-25T01:47:09.401Z,4.10
2023-11-25T01:49:37.048Z,4.10
2023-11-25T01:52:06.662Z,4.00
2023-11-25T01:54:33.755Z,4.00
2023-11-25T01:57:03.299Z,3.90
2023-11-25T01:59:32.573Z,3.90
2023-11-25T02:02:06.540Z,3.90
2023-11-25T02:04:36.912Z,3.90
2023-11-25T02:07:04.357Z,3.90
2023-11-25T02:09:32.356Z,3.90
2023-11-25T02:12:03.529Z,3.90
2023-11-25T02:14:30.700Z,4.00
2023-11-25T02:16:58.445Z,4.10
2023-11-25T02:19:25.988Z,4.10
2023-11-25T02:21:53.621Z,4.00
2023-11-25T02:24:20.955Z,3.90
2023-11-25T02:26:47.990Z,3.90
2023-11-25T02:29:15.004Z,3.80
2023-11-25T02:31:44.451Z,3.70
2023-11-25T02:34:13.396Z,3.60
2023-11-25T02:36:42.959Z,3.70
2023-11-25T02:39:11.224Z,3.60
2023-11-25T02:41:38.471Z,3.60
2023-11-25T02:44:06.165Z,3.60
2023-11-25T02:46:33.075Z,3.60
2023-11-25T02:49:00.798Z,3.50
2023-11-25T02:51:27.780Z,3.50
2023-11-25T02:53:54.715Z,3.40
2023-11-25T02:56:22.018Z,3.40
2023-11-25T02:58:49.742Z,3.40
2023-11-25T03:01:17.822Z,3.40
2023-11-25T03:03:49.816Z,3.30
2023-11-25T03:06:23.496Z,3.30
2023-11-25T03:08:50.894Z,3.30
2023-11-25T03:11:22.300Z,3.30
2023-11-25T03:13:49.422Z,3.20
2023-11-25T03:16:17.478Z,3.20
2023-11-25T03:18:44.370Z,3.20
2023-11-25T03:21:11.360Z,3.20
2023-11-25T03:23:38.551Z,3.10
2023-11-25T03:26:13.538Z,3.10
2023-11-25T03:28:41.016Z,3.10
2023-11-25T03:31:11.234Z,3.10
2023-11-25T03:33:38.479Z,3.20
2023-11-25T03:36:06.077Z,3.30
2023-11-25T03:38:33.056Z,3.50
2023-11-25T03:41:00.081Z,3.60
2023-11-25T03:43:27.707Z,3.70
2023-11-25T03:45:54.747Z,3.80
2023-11-25T03:48:21.648Z,3.90
2023-11-25T03:50:48.540Z,3.90
2023-11-25T03:53:15.467Z,4.00
2023-11-25T03:55:42.518Z,4.00
2023-11-25T03:58:10.173Z,4.10
2023-11-25T04:00:37.445Z,4.20
2023-11-25T04:03:04.745Z,4.30
2023-11-25T04:05:31.953Z,4.40
2023-11-25T04:07:59.029Z,4.40
2023-11-25T04:10:28.576Z,4.50
2023-11-25T04:12:57.839Z,4.60
2023-11-25T04:15:25.165Z,4.70
2023-11-25T04:17:52.963Z,4.80
2023-11-25T04:20:26.324Z,4.80
2023-11-25T04:22:55.093Z,4.90
2023-11-25T04:25:22.646Z,5.00
2023-11-25T04:27:50.228Z,4.90
2023-11-25T04:30:18.222Z,4.90
2023-11-25T04:32:47.282Z,4.70
2023-11-25T04:35:17.425Z,4.60
2023-11-25T04:37:48.946Z,4.50
2023-11-25T04:40:17.998Z,4.30
2023-11-25T04:42:45.414Z,4.40
2023-11-25T04:45:17.236Z,4.50
2023-11-25T04:47:45.459Z,4.50
2023-11-25T04:50:13.740Z,4.60
2023-11-25T04:52:41.740Z,4.60
2023-11-25T04:55:13.632Z,4.60
2023-11-25T04:57:41.184Z,4.60
2023-11-25T05:00:11.954Z,4.60
2023-11-25T05:02:39.721Z,4.50
2023-11-25T05:05:07.598Z,4.40
2023-11-25T05:07:35.247Z,4.20
2023-11-25T05:10:04.529Z,4.20
2023-11-25T05:12:31.748Z,4.10
2023-11-25T05:14:58.621Z,4.10
2023-11-25T05:17:28.261Z,4.10
2023-11-25T05:19:55.638Z,4.10
2023-11-25T05:22:22.962Z,4.00
2023-11-25T05:24:50.371Z,4.00
2023-11-25T05:27:17.721Z,3.90
2023-11-25T05:29:44.730Z,3.80
2023-11-25T05:32:14.197Z,3.90
2023-11-25T05:34:41.942Z,3.90
2023-11-25T05:37:11.857Z,3.90
2023-11-25T05:39:41.870Z,3.90
2023-11-25T05:42:11.704Z,4.00
2023-11-25T05:44:38.711Z,4.00
2023-11-25T05:47:05.981Z,4.00
2023-11-25T05:49:32.980Z,3.90
2023-11-25T05:52:01.138Z,3.90
2023-11-25T05:54:28.869Z,3.80
2023-11-25T05:56:55.992Z,3.80
2023-11-25T05:59:23.455Z,3.70
2023-11-25T06:01:50.807Z,3.70
2023-11-25T06:04:21.546Z,3.60
2023-11-25T06:06:49.307Z,3.70
2023-11-25T06:09:16.638Z,3.80
2023-11-25T06:11:43.872Z,4.00
2023-11-25T06:14:14.053Z,4.10
2023-11-25T06:16:44.355Z,4.10
2023-11-25T06:19:12.271Z,4.20
2023-11-25T06:21:41.139Z,4.20
2023-11-25T06:24:09.259Z,4.20
2023-11-25T06:26:36.560Z,4.10
2023-11-25T06:29:05.017Z,4.10
2023-11-25T06:31:34.740Z,4.20
2023-11-25T06:34:02.402Z,4.30
2023-11-25T06:36:29.450Z,4.30
2023-11-25T06:38:56.411Z,4.30
2023-11-25T06:41:26.611Z,4.20
2023-11-25T06:43:54.342Z,4.20
2023-11-25T06:46:23.705Z,4.10
2023-11-25T06:48:51.785Z,4.10
2023-11-25T06:51:19.004Z,4.10
2023-11-25T06:53:46.041Z,4.20
2023-11-25T06:56:13.225Z,4.30
2023-11-25T06:58:41.253Z,4.40
2023-11-25T07:01:08.298Z,4.40
2023-11-25T07:03:35.430Z,4.50
2023-11-25T07:06:02.707Z,4.60
2023-11-25T07:08:29.853Z,4.60
2023-11-25T07:11:00.308Z,4.60
2023-11-25T07:13:29.149Z,4.60
2023-11-25T07:15:57.406Z,4.60
2023-11-25T07:18:24.608Z,4.50
2023-11-25T07:20:54.230Z,4.50
2023-11-25T07:23:22.726Z,4.40
2023-11-25T07:25:49.745Z,4.30
2023-11-25T07:28:17.561Z,4.20
2023-11-25T07:30:45.980Z,4.10
2023-11-25T07:33:13.217Z,4.00
2023-11-25T07:35:41.175Z,4.00
2023-11-25T07:38:08.264Z,4.00
2023-11-25T07:40:35.667Z,4.00
2023-11-25T07:43:04.762Z,4.10
2023-11-25T07:45:31.906Z,4.20
2023-11-25T07:47:59.571Z,4.40
2023-11-25T07:50:27.195Z,4.50
2023-11-25T07:52:54.568Z,4.80
2023-11-25T07:55:21.844Z,5.00
2023-11-25T07:57:49.687Z,5.10
2023-11-25T08:00:19.157Z,5.10
2023-11-25T08:02:48.833Z,5.10
2023-11-25T08:05:24.789Z,5.00
2023-11-25T08:07:56.576Z,5.00
2023-11-25T08:10:25.995Z,5.00
2023-11-25T08:12:53.439Z,4.90
2023-11-25T08:15:20.460Z,4.80
2023-11-25T08:17:47.745Z,4.80
2023-11-25T08:20:15.354Z,4.60
2023-11-25T08:22:42.474Z,4.50
2023-11-25T08:25:11.296Z,4.50
2023-11-25T08:27:39.130Z,4.50
2023-11-25T08:30:10.388Z,4.50
2023-11-25T08:32:42.870Z,4.60
2023-11-25T08:35:10.947Z,5.30
2023-11-25T08:37:40.285Z,6.40
2023-11-25T08:40:17.894Z,6.40
2023-11-25T08:42:46.546Z,6.00
2023-11-25T08:45:14.930Z,5.80
2023-11-25T08:47:43.635Z,5.80
2023-11-25T08:50:16.763Z,5.70
2023-11-25T08:52:46.568Z,5.50
2023-11-25T08:55:18.992Z,5.40
2023-11-25T08:57:46.670Z,5.40
2023-11-25T09:00:23.219Z,5.50
2023-11-25T09:02:53.486Z,5.60
2023-11-25T09:05:23.878Z,5.70
2023-11-25T09:07:56.629Z,5.90
2023-11-25T09:10:24.632Z,6.00
2023-11-25T09:12:54.590Z,6.10
2023-11-25T09:15:22.496Z,6.20
2023-11-25T09:17:49.603Z,6.20
2023-11-25T09:20:18.187Z,6.10
2023-11-25T09:22:46.449Z,6.10
2023-11-25T09:25:13.758Z,6.40
2023-11-25T09:27:45.325Z,8.30
2023-11-25T09:30:13.462Z,10.80
2023-11-25T09:32:41.794Z,12.70
2023-11-25T09:35:13.981Z,12.80
2023-11-25T09:37:46.361Z,11.70
2023-11-25T09:40:16.926Z,10.60
2023-11-25T09:42:49.246Z,9.80
2023-11-25T09:45:29.924Z,9.20
2023-11-25T09:47:57.168Z,8.70
2023-11-25T09:50:24.381Z,8.70
2023-11-25T09:52:54.070Z,8.50
2023-11-25T09:55:23.938Z,8.50
2023-11-25T09:57:55.334Z,8.60
2023-11-25T10:00:22.958Z,8.70
2023-11-25T10:02:54.836Z,8.70
2023-11-25T10:05:22.219Z,8.60
2023-11-25T10:07:49.200Z,8.60
2023-11-25T10:10:22.700Z,8.50
2023-11-25T10:12:50.459Z,8.30
2023-11-25T10:15:17.622Z,8.10
2023-11-25T10:17:49.613Z,8.00
2023-11-25T10:20:20.716Z,8.00
2023-11-25T10:22:49.605Z,8.10
2023-11-25T10:25:20.612Z,8.30
2023-11-25T10:27:52.746Z,8.40
2023-11-25T10:30:22.124Z,8.70
2023-11-25T10:32:51.456Z,9.20
2023-11-25T10:35:20.165Z,9.20
2023-11-25T10:37:47.317Z,9.10
2023-11-25T10:40:18.293Z,8.90
2023-11-25T10:42:46.753Z,8.70
2023-11-25T10:45:17.646Z,8.60
2023-11-25T10:47:46.242Z,8.70
2023-11-25T10:50:16.556Z,9.00
2023-11-25T10:52:44.934Z,9.20
2023-11-25T10:55:12.105Z,9.40
2023-11-25T10:57:39.386Z,9.40
2023-11-25T11:00:13.400Z,9.30
2023-11-25T11:02:52.437Z,9.40
2023-11-25T11:05:31.120Z,9.50
2023-11-25T11:08:09.089Z,9.40
2023-11-25T11:10:46.645Z,9.20
2023-11-25T11:13:15.698Z,9.10
2023-11-25T11:15:47.642Z,9.00
2023-11-25T11:18:24.490Z,9.30
2023-11-25T11:20:53.077Z,10.40
2023-11-25T11:23:23.322Z,11.20
2023-11-25T11:26:14.591Z,11.40
2023-11-25T11:28:51.537Z,11.30
2023-11-25T11:31:39.387Z,11.00
2023-11-25T11:34:06.700Z,10.90
2023-11-25T11:36:36.257Z,10.70
2023-11-25T11:39:03.392Z,10.50
2023-11-25T11:41:31.306Z,10.30
2023-11-25T11:44:06.208Z,10.10
2023-11-25T11:46:40.520Z,10.20
2023-11-25T11:49:09.332Z,10.20
2023-11-25T11:51:36.725Z,10.10
2023-11-25T11:54:30.286Z,9.90
2023-11-25T11:57:10.512Z,10.00
2023-11-25T12:00:13.057Z,10.20
2023-11-25T12:02:44.535Z,10.40
2023-11-25T12:05:12.171Z,10.50
2023-11-25T12:07:39.537Z,10.80
2023-11-25T12:10:07.538Z,11.10
2023-11-25T12:12:42.125Z,11.20
2023-11-25T12:15:10.120Z,11.10
2023-11-25T12:17:37.379Z,10.80
2023-11-25T12:20:05.028Z,10.50
2023-11-25T12:22:32.299Z,10.30
2023-11-25T12:24:59.322Z,10.20
2023-11-25T12:27:28.663Z,10.00
2023-11-25T12:29:55.841Z,9.70
2023-11-25T12:32:22.806Z,9.50
2023-11-25T12:34:50.242Z,9.40
2023-11-25T12:37:17.507Z,9.30
2023-11-25T12:39:45.058Z,9.30
2023-11-25T12:42:13.344Z,9.50
2023-11-25T12:44:50.027Z,9.50
2023-11-25T12:47:17.979Z,9.30
2023-11-25T12:49:46.441Z,9.10
2023-11-25T12:52:21.314Z,9.10
2023-11-25T12:54:54.675Z,9.10
2023-11-25T12:57:27.593Z,9.00
2023-11-25T12:59:56.837Z,9.00
2023-11-25T13:02:23.866Z,9.10
2023-11-25T13:04:51.644Z,9.20
2023-11-25T13:07:35.542Z,9.40
2023-11-25T13:10:05.342Z,9.60
2023-11-25T13:12:34.041Z,9.70
2023-11-25T13:15:01.020Z,9.70
2023-11-25T13:17:29.356Z,9.70
2023-11-25T13:19:58.968Z,9.70
2023-11-25T13:22:26.132Z,9.60
2023-11-25T13:24:53.069Z,9.50
2023-11-25T13:27:20.265Z,9.30
2023-11-25T13:29:47.229Z,9.30
2023-11-25T13:32:17.815Z,9.30
2023-11-25T13:34:45.047Z,9.20
2023-11-25T13:37:12.231Z,9.20
2023-11-25T13:39:39.364Z,9.20
2023-11-25T13:42:07.053Z,9.10
2023-11-25T13:44:34.153Z,9.00
2023-11-25T13:47:01.385Z,8.90
2023-11-25T13:49:31.075Z,8.70
2023-11-25T13:51:58.704Z,8.60
2023-11-25T13:54:29.934Z,8.40
2023-11-25T13:56:57.373Z,8.30
2023-11-25T13:59:24.568Z,8.20
2023-11-25T14:01:51.779Z,8.30
2023-11-25T14:04:20.570Z,8.50
2023-11-25T14:06:47.576Z,8.70
2023-11-25T14:09:18.907Z,8.80
2023-11-25T14:11:46.333Z,8.80
2023-11-25T14:14:13.717Z,8.70
2023-11-25T14:16:40.873Z,8.60
2023-11-25T14:19:08.451Z,8.40
2023-11-25T14:21:35.607Z,8.30
2023-11-25T14:24:02.603Z,8.30
2023-11-25T14:26:29.359Z,8.30
2023-11-25T14:28:56.436Z,8.40
2023-11-25T14:31:23.521Z,8.40
2023-11-25T14:33:50.489Z,8.30
2023-11-25T14:36:18.507Z,8.30
2023-11-25T14:38:47.893Z,8.30
2023-11-25T14:41:20.753Z,8.20
2023-11-25T14:43:47.702Z,8.10
2023-11-25T14:46:14.656Z,8.00
2023-11-25T14:48:42.191Z,8.00
2023-11-25T14:51:08.970Z,8.00
2023-11-25T14:53:35.809Z,8.00
2023-11-25T14:56:02.601Z,7.90
2023-11-25T14:58:29.614Z,7.90
2023-11-25T15:00:56.428Z,7.80
2023-11-25T15:03:23.581Z,7.70
2023-11-25T15:05:50.546Z,7.50
2023-11-25T15:08:17.318Z,7.40
2023-11-25T15:10:45.155Z,7.30
2023-11-25T15:13:12.185Z,7.20
2023-11-25T15:15:39.317Z,7.10
2023-11-25T15:18:07.896Z,7.10
2023-11-25T15:20:35.093Z,7.00
2023-11-25T15:23:04.893Z,6.90
2023-11-25T15:25:32.924Z,6.80
2023-11-25T15:27:59.837Z,6.80
2023-11-25T15:30:27.102Z,6.70
2023-11-25T15:32:54.026Z,6.70
2023-11-25T15:35:20.908Z,6.70
2023-11-25T15:37:47.866Z,6.60
2023-11-25T15:40:15.709Z,6.50
2023-11-25T15:42:43.808Z,6.50
2023-11-25T15:45:12.331Z,6.50
2023-11-25T15:47:39.351Z,6.50
2023-11-25T15:50:07.136Z,6.60
2023-11-25T15:52:34.277Z,6.50
2023-11-25T15:55:01.247Z,6.50
2023-11-25T15:57:28.157Z,6.50
2023-11-25T15:59:55.457Z,6.40
2023-11-25T16:02:22.595Z,6.40
2023-11-25T16:04:49.847Z,6.40
2023-11-25T16:07:19.862Z,6.40
2023-11-25T16:09:46.711Z,6.40
2023-11-25T16:12:17.249Z,6.30
2023-11-25T16:14:44.240Z,6.30
2023-11-25T16:17:11.081Z,6.20
2023-11-25T16:19:38.338Z,6.30
2023-11-25T16:22:05.362Z,6.20
2023-11-25T16:24:32.228Z,6.20
2023-11-25T16:26:59.004Z,6.10
2023-11-25T16:29:25.837Z,6.10
2023-11-25T16:31:52.920Z,6.00
2023-11-25T16:34:20.171Z,6.00
2023-11-25T16:36:47.702Z,6.00
2023-11-25T16:39:18.388Z,6.00
2023-11-25T16:41:51.299Z,6.00
2023-11-25T16:44:22.113Z,5.90
2023-11-25T16:46:49.115Z,5.90
2023-11-25T16:49:16.372Z,5.90
2023-11-25T16:51:43.616Z,5.90
2023-11-25T16:54:10.551Z,5.90
2023-11-25T16:56:37.716Z,5.90
2023-11-25T16:59:06.342Z,5.90
2023-11-25T17:01:33.348Z,5.90
2023-11-25T17:04:00.439Z,5.90
2023-11-25T17:06:27.437Z,5.90
2023-11-25T17:08:54.480Z,5.90
2023-11-25T17:11:22.496Z,5.80
2023-11-25T17:13:50.282Z,5.80
2023-11-25T17:16:21.096Z,5.80
2023-11-25T17:18:48.528Z,5.70
2023-11-25T17:21:15.706Z,5.70
2023-11-25T17:23:42.460Z,5.70
2023-11-25T17:26:09.599Z,5.70
2023-11-25T17:28:37.527Z,5.70
2023-11-25T17:31:07.906Z,5.70
2023-11-25T17:33:37.041Z,5.70
2023-11-25T17:36:04.148Z,5.70
2023-11-25T17:38:30.988Z,5.70
2023-11-25T17:40:57.869Z,5.60
2023-11-25T17:43:24.741Z,5.60
2023-11-25T17:45:51.934Z,5.60
2023-11-25T17:48:18.880Z,5.50
2023-11-25T17:50:45.901Z,5.50
2023-11-25T17:53:14.910Z,5.40
2023-11-25T17:55:42.411Z,5.40
2023-11-25T17:58:09.822Z,5.40
2023-11-25T18:00:40.194Z,5.40
2023-11-25T18:03:08.271Z,5.30
2023-11-25T18:05:35.330Z,5.30
2023-11-25T18:08:02.935Z,5.30
2023-11-25T18:10:36.353Z,5.30
2023-11-25T18:13:06.818Z,5.30
2023-11-25T18:15:33.872Z,5.30
2023-11-25T18:18:02.906Z,5.40
2023-11-25T18:20:32.582Z,5.40
2023-11-25T18:23:01.604Z,5.30
2023-11-25T18:25:31.003Z,5.30
2023-11-25T18:27:58.178Z,5.20
2023-11-25T18:30:26.055Z,5.10
2023-11-25T18:32:53.300Z,5.10
2023-11-25T18:35:21.814Z,5.00
2023-11-25T18:37:50.087Z,5.00
2023-11-25T18:40:21.698Z,5.00
2023-11-25T18:42:52.228Z,4.90
2023-11-25T18:45:21.093Z,4.80
2023-11-25T18:47:51.107Z,4.70
2023-11-25T18:50:25.520Z,4.60
2023-11-25T18:52:56.845Z,4.50
2023-11-25T18:55:25.647Z,4.40
2023-11-25T18:57:55.142Z,4.40
2023-11-25T19:00:24.822Z,4.30
2023-11-25T19:02:52.292Z,4.20
2023-11-25T19:05:21.457Z,4.20
2023-11-25T19:07:48.934Z,4.10
2023-11-25T19:10:19.672Z,4.00
2023-11-25T19:12:48.113Z,3.90
2023-11-25T19:15:17.016Z,3.90
2023-11-25T19:17:46.505Z,3.80
2023-11-25T19:20:15.451Z,3.80
2023-11-25T19:22:49.996Z,3.70
2023-11-25T19:25:21.268Z,3.60
2023-11-25T19:27:51.590Z,3.60
2023-11-25T19:30:19.516Z,3.50
2023-11-25T19:32:46.484Z,3.40
2023-11-25T19:35:14.410Z,3.40
2023-11-25T19:37:43.471Z,3.30
2023-11-25T19:40:11.915Z,3.30
2023-11-25T19:42:38.853Z,3.30
2023-11-25T19:45:07.916Z,3.20
2023-11-25T19:47:35.014Z,3.20
2023-11-25T19:50:02.409Z,3.10
2023-11-25T19:52:30.631Z,3.10
2023-11-25T19:54:57.978Z,3.10
2023-11-25T19:57:27.802Z,3.10
2023-11-25T19:59:55.730Z,3.00
2023-11-25T20:02:27.254Z,2.90
2023-11-25T20:04:57.499Z,2.90
2023-11-25T20:07:25.089Z,2.90
2023-11-25T20:09:52.260Z,2.90
2023-11-25T20:12:22.079Z,2.90
2023-11-25T20:14:50.350Z,2.80
2023-11-25T20:17:25.519Z,2.80
2023-11-25T20:19:55.431Z,2.70
2023-11-25T20:22:24.537Z,2.60
2023-11-25T20:24:52.866Z,2.60
2023-11-25T20:27:21.283Z,2.50
2023-11-25T20:29:49.704Z,2.50
2023-11-25T20:32:23.724Z,2.40
2023-11-25T20:34:51.381Z,2.40
2023-11-25T20:37:19.186Z,2.40
2023-11-25T20:39:46.168Z,2.30
2023-11-25T20:42:16.248Z,2.30
2023-11-25T20:44:43.634Z,2.20
2023-11-25T20:47:11.889Z,2.20
2023-11-25T20:49:39.169Z,2.20
2023-11-25T20:52:07.897Z,2.10
2023-11-25T20:54:36.195Z,2.10
2023-11-25T20:57:04.201Z,2.10
2023-11-25T20:59:31.580Z,2.00
2023-11-25T21:02:02.182Z,2.00
2023-11-25T21:04:29.045Z,1.90
2023-11-25T21:06:56.599Z,1.90
2023-11-25T21:09:25.314Z,1.90
2023-11-25T21:11:52.329Z,1.90
2023-11-25T21:14:21.896Z,1.80
2023-11-25T21:16:49.118Z,1.80
2023-11-25T21:19:15.959Z,1.80
2023-11-25T21:21:42.713Z,1.80
2023-11-25T21:24:09.897Z,1.70
2023-11-25T21:26:37.942Z,1.80
2023-11-25T21:29:04.943Z,1.80
2023-11-25T21:31:31.830Z,1.80
2023-11-25T21:33:58.710Z,1.70
2023-11-25T21:36:25.656Z,1.70
2023-11-25T21:38:52.428Z,1.60
2023-11-25T21:41:19.288Z,1.50
2023-11-25T21:43:46.186Z,1.50
2023-11-25T21:46:13.224Z,1.50
2023-11-25T21:48:41.266Z,1.50
2023-11-25T21:51:09.137Z,1.50
2023-11-25T21:53:36.271Z,1.40
2023-11-25T21:56:03.203Z,1.40
2023-11-25T21:58:30.381Z,1.40
2023-11-25T22:00:57.395Z,1.30
2023-11-25T22:03:24.537Z,1.30
2023-11-25T22:05:51.777Z,1.20
2023-11-25T22:08:18.615Z,1.20
2023-11-25T22:10:45.442Z,1.20
2023-11-25T22:13:12.666Z,1.20
2023-11-25T22:15:40.362Z,1.10
2023-11-25T22:18:09.046Z,1.10
2023-11-25T22:20:36.012Z,1.10
2023-11-25T22:23:02.907Z,1.10
2023-11-25T22:25:35.687Z,1.10
2023-11-25T22:28:03.358Z,1.10
2023-11-25T22:30:30.200Z,1.00
2023-11-25T22:32:57.434Z,1.00
2023-11-25T22:35:24.788Z,1.00
2023-11-25T22:37:52.483Z,0.90
2023-11-25T22:40:19.989Z,0.90
2023-11-25T22:42:47.080Z,0.80
2023-11-25T22:45:14.989Z,0.80
2023-11-25T22:47:41.895Z,0.80
2023-11-25T22:50:09.976Z,0.80
2023-11-25T22:52:37.094Z,0.80
2023-11-25T22:55:04.007Z,0.90
2023-11-25T22:57:31.013Z,1.00
2023-11-25T22:59:57.942Z,1.10
2023-11-25T23:02:25.168Z,1.20
2023-11-25T23:04:52.853Z,1.30
2023-11-25T23:07:21.028Z,1.30
2023-11-25T23:09:47.832Z,1.30
2023-11-25T23:12:14.933Z,1.30
2023-11-25T23:14:43.291Z,1.20
2023-11-25T23:17:10.600Z,1.30
2023-11-25T23:19:37.471Z,1.30
2023-11-25T23:22:04.804Z,1.30
2023-11-25T23:24:35.232Z,1.30
2023-11-25T23:27:02.262Z,1.40
2023-11-25T23:29:31.083Z,1.40
2023-11-25T23:31:58.753Z,1.30
2023-11-25T23:34:26.480Z,1.30
2023-11-25T23:36:53.641Z,1.20
2023-11-25T23:39:22.183Z,1.10
2023-11-25T23:41:50.997Z,1.10
2023-11-25T23:44:18.158Z,1.10
2023-11-25T23:46:45.309Z,1.00
2023-11-25T23:49:12.122Z,1.00
2023-11-25T23:51:39.121Z,1.00
2023-11-25T23:54:06.138Z,0.90
2023-11-25T23:56:34.861Z,0.90
2023-11-25T23:59:01.909Z,0.90
